createdAt,value
2019-01-09T02:37:31.090Z,58.71
2019-01-09T02:40:02.170Z,58.73
2019-01-09T02:42:33.175Z,58.60
2019-01-09T02:45:04.184Z,58.67
2019-01-09T02:47:34.167Z,58.76
2019-01-09T02:50:04.638Z,58.72
2019-01-09T02:52:35.355Z,58.74
2019-01-09T02:55:07.826Z,58.57
2019-01-09T02:57:39.265Z,58.48
2019-01-09T03:00:11.818Z,58.47
2019-01-09T03:02:42.690Z,58.51
2019-01-09T03:05:14.139Z,58.43
2019-01-09T03:07:45.410Z,58.46
2019-01-09T03:10:15.801Z,58.50
2019-01-09T03:12:45.973Z,58.47
2019-01-09T03:15:15.809Z,58.53
2019-01-09T03:17:46.094Z,58.45
2019-01-09T03:20:17.237Z,58.50
2019-01-09T03:22:47.544Z,58.48
2019-01-09T03:25:18.233Z,58.54
2019-01-09T03:27:47.996Z,58.50
2019-01-09T03:30:17.852Z,58.45
2019-01-09T03:32:48.699Z,58.46
2019-01-09T03:35:18.709Z,58.33
2019-01-09T03:37:48.944Z,58.28
2019-01-09T03:40:19.018Z,58.36
2019-01-09T03:42:50.418Z,58.47
2019-01-09T03:45:20.554Z,58.39
2019-01-09T03:47:51.461Z,58.33
2019-01-09T03:50:21.625Z,58.04
2019-01-09T03:52:52.722Z,58.39
2019-01-09T08:28:50.038Z,60.54
2019-01-09T08:31:19.150Z,60.34
2019-01-09T08:33:48.302Z,60.39
2019-01-09T08:36:17.361Z,60.15
2019-01-09T08:38:46.435Z,60.38
2019-01-09T08:41:16.636Z,60.53
2019-01-09T08:43:45.690Z,60.37
2019-01-09T08:46:14.894Z,60.24
2019-01-09T08:48:44.095Z,60.12
2019-01-09T08:51:13.243Z,60.19
2019-01-09T08:53:42.422Z,60.00
2019-01-09T08:56:11.521Z,59.95
2019-01-09T08:58:40.604Z,59.92
2019-01-09T09:01:09.806Z,59.83
2019-01-09T09:03:38.926Z,59.59
2019-01-09T09:06:08.047Z,59.46
2019-01-09T09:08:37.151Z,58.57
2019-01-09T09:11:06.256Z,57.96
2019-01-09T09:13:37.137Z,57.57
2019-01-09T09:16:07.889Z,57.57
2019-01-09T09:18:37.021Z,56.91
2019-01-09T09:21:06.137Z,56.98
2019-01-09T09:23:35.340Z,55.92
2019-01-09T09:26:04.401Z,54.07
2019-01-09T09:28:33.635Z,53.04
2019-01-09T09:31:02.732Z,52.90
2019-01-09T09:33:31.955Z,52.70
2019-01-09T09:36:01.068Z,51.02
2019-01-09T09:38:30.199Z,50.88
2019-01-09T09:40:59.301Z,51.05
2019-01-09T09:43:28.429Z,51.30
2019-01-09T09:45:57.486Z,51.63
2019-01-09T09:48:26.701Z,51.91
2019-01-09T09:50:55.872Z,51.98
2019-01-09T09:53:25.070Z,52.34
2019-01-09T09:55:54.144Z,52.61
2019-01-09T09:58:23.234Z,52.64
2019-01-09T10:00:52.354Z,52.64
2019-01-09T10:03:21.570Z,52.35
2019-01-09T10:05:50.806Z,51.85
2019-01-09T10:08:19.940Z,51.56
2019-01-09T10:10:49.147Z,51.38
2019-01-09T10:13:18.262Z,50.21
2019-01-09T10:15:48.666Z,49.94
2019-01-09T10:18:17.882Z,49.09
2019-01-09T10:20:46.978Z,47.54
2019-01-09T10:23:16.088Z,48.01
2019-01-09T10:25:45.233Z,47.92
2019-01-09T10:28:17.080Z,48.45
2019-01-09T10:30:46.176Z,49.00
2019-01-09T10:33:15.354Z,49.67
2019-01-09T10:35:44.375Z,50.01
2019-01-09T10:38:13.498Z,50.11
2019-01-09T10:40:42.577Z,50.35
2019-01-09T10:43:11.706Z,50.26
2019-01-09T10:45:41.094Z,50.44
2019-01-09T10:48:10.208Z,50.80
2019-01-09T10:50:39.366Z,51.27
2019-01-09T10:53:08.562Z,51.22
2019-01-09T10:55:37.656Z,51.48
2019-01-09T10:58:06.881Z,51.45
2019-01-09T11:00:36.023Z,51.62
2019-01-09T11:03:05.203Z,51.62
2019-01-09T11:05:34.401Z,51.12
2019-01-09T11:08:03.550Z,50.68
2019-01-09T11:10:32.760Z,49.60
2019-01-09T11:13:01.855Z,46.50
2019-01-09T11:15:31.009Z,42.82
2019-01-09T11:18:00.457Z,39.15
2019-01-09T11:20:30.335Z,38.28
2019-01-09T11:22:59.424Z,38.41
2019-01-09T11:25:29.198Z,38.46
2019-01-09T11:27:58.432Z,38.85
2019-01-09T11:30:27.641Z,39.58
2019-01-09T11:32:56.810Z,39.88
2019-01-09T11:35:26.464Z,39.71
2019-01-09T11:37:55.622Z,38.46
2019-01-09T11:40:24.732Z,39.30
2019-01-09T11:42:53.871Z,37.70
2019-01-09T11:45:23.957Z,34.94
2019-01-09T11:47:53.053Z,33.42
2019-01-09T11:50:22.180Z,31.05
2019-01-09T11:52:51.356Z,28.47
2019-01-09T11:55:20.446Z,28.66
2019-01-09T11:57:49.520Z,27.24
2019-01-09T12:00:26.606Z,26.09
2019-01-09T12:02:55.809Z,25.65
2019-01-09T12:05:25.026Z,25.43
2019-01-09T12:07:54.155Z,24.49
2019-01-09T12:10:29.950Z,24.29
2019-01-09T12:12:55.496Z,23.88
2019-01-09T12:15:24.672Z,24.16
2019-01-09T12:17:53.753Z,25.59
2019-01-09T12:20:22.880Z,27.25
2019-01-09T12:22:51.992Z,28.47
2019-01-09T12:25:21.330Z,28.97
2019-01-09T12:27:50.449Z,30.40
2019-01-09T12:30:27.467Z,31.33
2019-01-09T12:32:56.674Z,31.02
2019-01-09T12:35:25.808Z,31.42
2019-01-09T12:37:55.050Z,29.42
2019-01-09T12:40:24.170Z,26.90
2019-01-09T12:42:53.290Z,26.53
2019-01-09T12:45:22.462Z,27.03
2019-01-09T12:47:51.723Z,28.59
2019-01-09T12:50:22.873Z,30.61
2019-01-09T12:52:52.720Z,31.86
2019-01-09T12:55:22.014Z,32.90
2019-01-09T12:57:51.135Z,33.91
2019-01-09T13:00:27.719Z,34.81
2019-01-09T13:02:56.835Z,35.62
2019-01-09T13:05:25.938Z,35.86
2019-01-09T13:07:55.129Z,36.39
2019-01-09T13:10:24.217Z,36.60
2019-01-09T13:12:53.350Z,37.39
2019-01-09T13:15:22.451Z,37.32
2019-01-09T13:17:51.604Z,37.06
2019-01-09T13:20:20.704Z,37.11
2019-01-09T13:22:49.860Z,37.04
2019-01-09T13:25:18.992Z,37.22
2019-01-09T13:27:48.164Z,37.59
2019-01-09T13:30:22.303Z,38.09
2019-01-09T13:32:51.456Z,38.74
2019-01-09T13:35:20.571Z,39.08
2019-01-09T13:37:49.676Z,39.29
2019-01-09T13:40:19.904Z,39.37
2019-01-09T13:42:49.367Z,39.35
2019-01-09T13:45:20.939Z,39.20
2019-01-09T13:47:50.058Z,38.85
2019-01-09T13:50:19.350Z,39.22
2019-01-09T13:52:48.586Z,39.42
2019-01-09T13:55:18.192Z,39.37
2019-01-09T13:57:47.422Z,39.32
2019-01-09T14:00:18.292Z,39.49
2019-01-09T14:02:47.488Z,39.51
2019-01-09T14:05:20.037Z,39.42
2019-01-09T14:07:49.157Z,39.68
2019-01-09T14:10:25.998Z,39.85
2019-01-09T14:12:55.184Z,39.99
2019-01-09T14:15:25.319Z,40.37
2019-01-09T14:17:54.522Z,40.42
2019-01-09T14:20:23.637Z,40.73
2019-01-09T14:22:52.793Z,41.03
2019-01-09T14:25:21.970Z,41.31
2019-01-09T14:27:51.107Z,41.64
2019-01-09T14:30:22.328Z,41.79
2019-01-09T14:32:51.499Z,41.92
2019-01-09T14:35:20.596Z,42.16
2019-01-09T14:43:14.988Z,41.69
2019-01-09T14:45:44.453Z,41.81
2019-01-09T14:48:14.087Z,41.70
2019-01-09T14:50:43.618Z,41.50
2019-01-09T14:53:27.902Z,41.75
2019-01-09T14:56:03.057Z,41.96
2019-01-09T14:58:39.743Z,42.27
2019-01-09T15:01:11.075Z,42.56
2019-01-09T15:03:41.475Z,42.70
2019-01-09T15:06:12.507Z,42.81
2019-01-09T15:08:47.940Z,43.00
2019-01-09T15:11:21.182Z,43.15
2019-01-09T15:14:44.839Z,43.08
2019-01-09T15:56:26.778Z,43.82
2019-01-09T15:58:55.904Z,43.76
2019-01-09T16:01:25.106Z,43.89
2019-01-09T16:03:54.213Z,43.92
2019-01-09T16:06:23.383Z,44.04
2019-01-09T16:08:52.464Z,43.78
2019-01-09T16:11:21.689Z,43.99
2019-01-09T16:13:50.856Z,44.03
2019-01-09T16:16:19.980Z,44.10
2019-01-09T16:18:49.071Z,44.11
2019-01-09T16:21:18.292Z,44.17
2019-01-09T16:23:47.372Z,44.15
2019-01-09T16:26:16.798Z,44.35
2019-01-09T16:28:45.950Z,44.48
2019-01-09T16:31:39.173Z,44.68
2019-01-09T16:34:08.385Z,44.56
2019-01-09T16:36:37.832Z,44.75
2019-01-09T16:39:10.491Z,44.96
2019-01-09T16:41:39.640Z,45.01
2019-01-09T16:44:08.754Z,45.22
2019-01-09T16:46:37.924Z,45.30
2019-01-09T16:49:06.981Z,45.39
2019-01-09T16:51:36.091Z,45.53
2019-01-09T16:54:05.262Z,45.62
2019-01-09T16:56:34.734Z,45.66
2019-01-09T16:59:03.823Z,45.72
2019-01-09T17:01:32.981Z,45.69
2019-01-09T17:04:02.066Z,45.73
2019-01-09T17:06:31.148Z,45.81
2019-01-09T17:09:00.625Z,45.92
2019-01-09T17:11:29.956Z,46.09
2019-01-09T17:13:59.011Z,46.05
2019-01-09T17:16:28.227Z,46.21
2019-01-09T17:18:57.298Z,46.29
2019-01-09T17:21:26.593Z,46.37
2019-01-09T17:23:55.824Z,46.39
2019-01-09T17:26:24.901Z,46.53
2019-01-09T17:28:54.017Z,46.67
2019-01-09T17:31:23.099Z,46.76
2019-01-09T17:33:52.441Z,46.97
2019-01-09T17:36:21.615Z,46.93
2019-01-09T17:38:50.672Z,46.91
2019-01-09T17:41:19.773Z,47.09
2019-01-09T17:43:49.000Z,47.24
2019-01-09T17:46:18.132Z,47.12
2019-01-09T17:48:47.236Z,47.22
2019-01-09T17:51:16.330Z,47.32
2019-01-09T17:53:45.569Z,47.30
2019-01-09T17:56:14.723Z,47.31
2019-01-09T17:58:43.928Z,47.47
2019-01-09T18:01:13.036Z,47.51
2019-01-09T18:03:42.182Z,47.56
2019-01-09T18:06:11.220Z,47.59
2019-01-09T18:08:40.567Z,47.37
2019-01-09T18:11:09.709Z,47.38
2019-01-09T18:13:38.807Z,47.36
2019-01-09T18:16:08.009Z,47.42
2019-01-09T18:18:37.201Z,47.43
2019-01-09T18:21:06.540Z,47.52
2019-01-09T18:23:35.663Z,47.46
2019-01-09T18:26:04.743Z,47.27
2019-01-09T18:28:33.870Z,47.11
2019-01-09T18:31:49.773Z,47.24
2019-01-09T18:34:50.215Z,47.14
2019-01-09T18:37:56.574Z,47.06
2019-01-09T18:41:24.731Z,47.15
2019-01-09T18:44:26.241Z,47.25
2019-01-09T18:47:19.916Z,47.19
2019-01-09T18:50:18.942Z,47.12
2019-01-09T18:52:53.535Z,47.40
2019-01-09T18:55:22.658Z,47.18
2019-01-09T18:57:52.684Z,47.12
2019-01-09T19:00:23.371Z,47.37
2019-01-09T19:02:52.722Z,46.75
2019-01-09T19:05:21.865Z,46.65
2019-01-09T19:07:51.022Z,46.50
2019-01-09T19:10:22.178Z,46.76
2019-01-09T19:12:51.333Z,46.30
2019-01-09T19:15:20.410Z,46.32
2019-01-09T19:17:49.531Z,46.46
2019-01-09T19:20:18.606Z,46.25
2019-01-09T19:22:47.709Z,46.20
2019-01-09T19:25:17.175Z,46.40
2019-01-09T19:27:46.694Z,46.44
2019-01-09T19:30:27.292Z,46.28
2019-01-09T19:32:56.416Z,46.38
2019-01-09T19:35:25.526Z,46.71
2019-01-09T19:37:54.640Z,46.87
2019-01-09T19:40:23.867Z,47.00
2019-01-09T19:42:53.474Z,47.23
2019-01-09T19:45:22.527Z,47.37
2019-01-09T19:47:51.820Z,47.57
2019-01-09T19:50:23.078Z,47.71
2019-01-09T19:52:53.027Z,47.77
2019-01-09T19:55:22.742Z,47.85
2019-01-09T19:57:51.788Z,48.04
2019-01-09T20:00:22.711Z,48.05
2019-01-09T20:02:51.837Z,48.07
2019-01-09T20:05:21.050Z,48.24
2019-01-09T20:07:50.130Z,48.16
2019-01-09T20:10:21.032Z,48.16
2019-01-09T20:12:50.161Z,48.03
2019-01-09T20:15:19.543Z,47.91
2019-01-09T20:17:48.970Z,48.00
2019-01-09T20:20:18.678Z,48.27
2019-01-09T20:22:49.112Z,48.18
2019-01-09T20:25:18.359Z,48.33
2019-01-09T20:27:47.492Z,48.31
2019-01-09T20:30:25.140Z,48.38
2019-01-09T20:32:54.243Z,48.40
2019-01-09T20:35:23.412Z,48.45
2019-01-09T20:37:52.434Z,48.42
2019-01-09T20:40:21.681Z,48.50
2019-01-09T20:42:50.840Z,48.55
2019-01-09T20:45:19.928Z,48.62
2019-01-09T20:47:49.061Z,48.70
2019-01-09T20:50:36.241Z,48.56
2019-01-09T20:53:05.432Z,48.63
2019-01-09T20:55:34.568Z,48.60
2019-01-09T20:58:03.785Z,48.52
2019-01-09T21:00:32.897Z,48.46
2019-01-09T21:03:04.762Z,48.30
2019-01-09T21:05:36.642Z,48.32
2019-01-09T21:08:06.183Z,48.18
2019-01-09T21:10:35.261Z,48.04
2019-01-09T21:13:04.690Z,47.92
2019-01-09T21:15:33.954Z,47.96
2019-01-09T21:18:03.119Z,47.92
2019-01-09T21:20:32.182Z,47.87
2019-01-09T21:23:01.326Z,47.75
2019-01-09T21:25:30.453Z,47.80
2019-01-09T21:27:59.528Z,47.87
2019-01-09T21:30:28.619Z,47.65
2019-01-09T21:32:57.719Z,47.79
2019-01-09T21:35:26.777Z,47.93
2019-01-09T21:37:55.907Z,47.93
2019-01-09T21:40:26.988Z,47.99
2019-01-09T21:42:56.046Z,47.79
2019-01-09T21:45:25.107Z,47.81
2019-01-09T21:47:54.427Z,47.85
2019-01-09T21:50:24.160Z,48.06
2019-01-09T21:52:53.275Z,47.78
2019-01-09T21:55:22.409Z,47.76
2019-01-09T21:57:51.469Z,47.88
2019-01-09T22:00:27.185Z,47.96
2019-01-09T22:02:56.285Z,47.81
2019-01-09T22:05:26.015Z,47.83
2019-01-09T22:07:55.065Z,47.80
2019-01-09T22:10:29.612Z,47.85
2019-01-09T22:12:58.692Z,47.85
2019-01-09T22:15:27.741Z,47.75
2019-01-09T22:17:56.854Z,47.80
2019-01-09T22:20:25.902Z,47.79
2019-01-09T22:22:54.958Z,47.70
2019-01-09T22:25:23.998Z,47.75
2019-01-09T22:27:53.054Z,47.84
2019-01-09T22:30:24.189Z,47.71
2019-01-09T22:32:53.280Z,47.73
2019-01-09T22:35:22.432Z,47.93
2019-01-09T22:37:51.533Z,47.92
2019-01-09T22:40:21.117Z,47.95
2019-01-09T22:42:50.281Z,47.91
2019-01-09T22:45:19.389Z,47.99
2019-01-09T22:47:48.499Z,48.01
2019-01-09T22:50:19.512Z,47.97
2019-01-09T22:52:48.623Z,47.90
2019-01-09T22:55:17.695Z,47.80
2019-01-09T22:57:46.855Z,47.75
2019-01-09T23:00:35.797Z,47.75
2019-01-09T23:03:05.540Z,47.75
2019-01-09T23:05:34.776Z,47.81
2019-01-09T23:08:03.831Z,47.69
2019-01-09T23:10:32.910Z,47.69
2019-01-09T23:13:01.940Z,47.68
2019-01-09T23:15:31.030Z,47.66
2019-01-09T23:18:00.184Z,47.71
2019-01-09T23:20:29.853Z,47.72
2019-01-09T23:22:58.972Z,47.52
2019-01-09T23:25:28.421Z,47.43
2019-01-09T23:27:57.463Z,47.42
2019-01-09T23:30:26.651Z,47.38
2019-01-09T23:32:55.700Z,47.45
2019-01-09T23:35:24.898Z,47.56
2019-01-09T23:37:54.026Z,47.47
2019-01-09T23:40:23.261Z,47.37
2019-01-09T23:42:52.356Z,47.41
2019-01-09T23:45:21.460Z,47.50
2019-01-09T23:47:50.561Z,47.46
2019-01-09T23:50:19.614Z,47.59
2019-01-09T23:52:48.759Z,47.46
2019-01-09T23:55:17.858Z,47.48
2019-01-09T23:57:46.893Z,47.47
